CheckWX is a tool to help pilots better visualize weather data.  It is not intended as a substitute for an official pre-flight weather briefing.

05:13:27 UTC

KPHX TAF
Phoenix Sky Harbor International Airport
Phoenix, Arizona, USA
KPHX 230315Z 2303/2406 26005KT P6SM FEW250 FM230600 10004KT P6SM FEW250 FM232000 27007KT P6SM FEW250

Mar-23@
03:00 UTC

Mar-23 @ 03:00 UTC

Mar-23@
06:00 UTC

Mar-23 @ 06:00 UTC

KPHX 230315Z 2303/2406 26005KT P6SM FEW250
Wind
  • 260° at 5 KTS
Cloud Levels
  • Few at 25,000' AGL

Mar-23@
06:00 UTC

Mar-23 @ 06:00 UTC

Mar-23@
20:00 UTC

Mar-23 @ 20:00 UTC

FM230600 10004KT P6SM FEW250

From

From Standard forecast or significant change

Wind
  • 100° at 4 KTS
Cloud Levels
  • Few at 25,000' AGL

Mar-23@
20:00 UTC

Mar-23 @ 20:00 UTC

Mar-24@
06:00 UTC

Mar-24 @ 06:00 UTC

FM232000 27007KT P6SM FEW250

From

From Standard forecast or significant change

Wind
  • 270° at 7 KTS
Cloud Levels
  • Few at 25,000' AGL